KSNL/SNL METAR and TAF weather

Enter ICAO airport designator
Station Type Date Time Source
KSNL METAR 2019/09/20 20:15 UTC NOAA

KSNL 202015Z AUTO 15009KT 10SM OVC011 24/21 A2996 RMK AO2 LTG DSNT SE AND S T02400211


Station Type Date Time Source
KSNL Decoded METAR 2019/09/20 20:15 UTC NOAA

Shawnee, Shawnee Municipal Airport, OK, United States (KSNL) 35-21-26N 096-56-34W
Sep 20, 2019 - 04:15 PM EDT / 2019.09.20 2015 UTC
Wind: from the SSE (150 degrees) at 10 MPH (9 KT):0
Visibility: 10 mile(s):0
Sky conditions: overcast
Weather: Lightning observed
Temperature: 75.2 F (24.0 C)
Dew Point: 70.0 F (21.1 C)
Relative Humidity: 83%
Pressure (altimeter): 29.96 in. Hg (1014 hPa)
ob: KSNL 202015Z AUTO 15009KT 10SM OVC011 24/21 A2996 RMK AO2 LTG DSNT SE AND S T02400211
cycle: 20

Station Type Date Time Source
KSNL TAF UTC NOAA

Error!

Example: see airport list